createdAt,value
2022-08-21T00:00:44.657Z,69.60
2022-08-21T00:03:12.489Z,69.43
2022-08-21T00:05:43.412Z,70.22
2022-08-21T00:08:10.825Z,71.18
2022-08-21T00:10:38.487Z,71.00
2022-08-21T00:13:06.323Z,71.58
2022-08-21T00:15:36.300Z,71.41
2022-08-21T00:18:05.239Z,71.06
2022-08-21T00:20:32.085Z,70.50
2022-08-21T00:22:58.977Z,70.41
2022-08-21T00:25:26.437Z,71.28
2022-08-21T00:27:53.571Z,72.20
2022-08-21T00:30:23.097Z,72.94
2022-08-21T00:32:51.815Z,73.71
2022-08-21T00:35:22.867Z,69.95
2022-08-21T00:37:50.068Z,70.50
2022-08-21T00:40:20.359Z,70.52
2022-08-21T00:42:53.271Z,70.91
2022-08-21T00:45:22.497Z,71.09
2022-08-21T00:47:49.839Z,71.24
2022-08-21T00:50:21.555Z,70.93
2022-08-21T00:52:52.128Z,70.55
2022-08-21T00:55:19.544Z,70.18
2022-08-21T00:57:51.917Z,69.81
2022-08-21T01:00:26.275Z,70.19
2022-08-21T01:02:52.967Z,69.70
2022-08-21T01:05:19.569Z,69.67
2022-08-21T01:07:46.538Z,69.63
2022-08-21T01:10:24.477Z,69.01
2022-08-21T01:12:56.615Z,70.14
2022-08-21T01:15:28.393Z,71.18
2022-08-21T01:17:55.203Z,71.39
2022-08-21T01:20:21.881Z,72.48
2022-08-21T01:22:59.077Z,72.32
2022-08-21T01:25:26.012Z,71.53
2022-08-21T01:27:52.690Z,71.18
2022-08-21T01:30:24.272Z,71.18
2022-08-21T01:32:52.335Z,71.80
2022-08-21T01:35:21.001Z,72.01
2022-08-21T01:37:48.553Z,71.36
2022-08-21T01:40:16.928Z,70.88
2022-08-21T01:42:45.034Z,70.64
2022-08-21T01:45:13.259Z,70.28
2022-08-21T01:47:43.475Z,69.98
2022-08-21T01:50:14.527Z,70.22
2022-08-21T01:52:41.813Z,69.92
2022-08-21T01:55:10.031Z,70.22
2022-08-21T01:57:36.771Z,70.30
2022-08-21T02:00:09.919Z,70.54
2022-08-21T02:02:39.953Z,70.02
2022-08-21T02:05:07.492Z,69.85
2022-08-21T02:08:00.932Z,70.68
2022-08-21T02:10:31.068Z,69.91
2022-08-21T02:12:58.921Z,69.90
2022-08-21T02:15:25.762Z,69.87
2022-08-21T02:17:56.214Z,69.98
2022-08-21T02:20:30.792Z,70.57
2022-08-21T02:22:57.752Z,70.61
2022-08-21T02:25:26.767Z,70.84
2022-08-21T02:27:54.437Z,70.84
2022-08-21T02:30:25.770Z,69.79
2022-08-21T02:32:52.524Z,69.49
2022-08-21T02:35:20.324Z,69.30
2022-08-21T02:37:56.667Z,69.30
2022-08-21T02:40:26.691Z,69.38
2022-08-21T02:42:53.767Z,70.42
2022-08-21T02:45:21.093Z,71.19
2022-08-21T02:47:53.710Z,72.04
2022-08-21T02:50:30.312Z,71.82
2022-08-21T02:52:58.105Z,71.77
2022-08-21T02:55:27.514Z,71.38
2022-08-21T02:57:55.683Z,71.20
2022-08-21T03:00:23.743Z,71.36
2022-08-21T03:02:51.739Z,71.79
2022-08-21T03:05:19.197Z,72.28
2022-08-21T03:07:47.255Z,72.57
2022-08-21T03:10:14.975Z,72.35
2022-08-21T03:12:42.433Z,71.46
2022-08-21T03:15:15.393Z,71.71
2022-08-21T03:17:42.057Z,71.35
2022-08-21T03:20:10.014Z,71.33
2022-08-21T03:22:37.085Z,70.91
2022-08-21T03:25:06.665Z,71.22
2022-08-21T03:27:33.885Z,71.07
2022-08-21T03:30:02.053Z,71.04
2022-08-21T03:32:28.807Z,70.81
2022-08-21T03:34:55.494Z,70.64
2022-08-21T03:37:22.186Z,70.28
2022-08-21T03:39:48.852Z,70.15
2022-08-21T03:42:15.548Z,70.28
2022-08-21T03:44:42.211Z,71.77
2022-08-21T03:47:09.170Z,72.79
2022-08-21T03:49:35.831Z,73.40
2022-08-21T03:52:03.737Z,73.64
2022-08-21T03:54:30.532Z,73.32
2022-08-21T03:56:57.651Z,73.31
2022-08-21T03:59:24.642Z,74.40
2022-08-21T04:02:00.320Z,75.17
2022-08-21T04:04:29.999Z,75.69
2022-08-21T04:06:58.055Z,75.20
2022-08-21T04:09:25.969Z,76.02
2022-08-21T04:11:53.647Z,76.79
2022-08-21T04:14:20.656Z,76.83
2022-08-21T04:16:47.359Z,76.63
2022-08-21T04:19:14.539Z,75.78
2022-08-21T04:21:41.755Z,76.19
2022-08-21T04:24:11.430Z,75.25
2022-08-21T04:26:39.338Z,75.05
2022-08-21T04:29:06.383Z,74.13
2022-08-21T04:31:35.047Z,72.85
2022-08-21T04:34:01.822Z,73.17
2022-08-21T04:36:28.411Z,73.64
2022-08-21T04:38:55.025Z,73.27
2022-08-21T04:41:28.026Z,74.20
2022-08-21T04:43:55.468Z,74.68
2022-08-21T04:46:23.166Z,75.41
2022-08-21T04:48:50.083Z,75.93
2022-08-21T04:51:23.209Z,75.26
2022-08-21T04:53:59.220Z,75.29
2022-08-21T04:56:33.562Z,75.85
2022-08-21T04:59:05.178Z,76.14
2022-08-21T05:01:35.414Z,76.02
2022-08-21T05:04:05.058Z,75.88
2022-08-21T05:06:36.423Z,76.52
2022-08-21T05:09:04.108Z,76.37
2022-08-21T05:11:32.150Z,78.68
2022-08-21T05:13:59.544Z,78.85
2022-08-21T05:16:36.568Z,78.74
2022-08-21T05:19:06.652Z,78.14
2022-08-21T05:21:38.696Z,77.75
2022-08-21T05:24:05.475Z,77.64
2022-08-21T05:26:32.150Z,77.80
2022-08-21T05:28:59.157Z,77.70
2022-08-21T05:31:25.991Z,78.13
2022-08-21T05:33:52.739Z,78.44
2022-08-21T05:36:22.844Z,78.19
2022-08-21T05:38:49.564Z,78.09
2022-08-21T05:41:16.267Z,78.08
2022-08-21T05:43:42.970Z,78.26
2022-08-21T05:46:09.683Z,80.37
2022-08-21T05:48:40.495Z,81.23
2022-08-21T05:51:09.633Z,84.26
2022-08-21T05:53:36.851Z,85.46
2022-08-21T05:56:04.599Z,84.73
2022-08-21T05:58:33.093Z,85.36
2022-08-21T06:01:01.203Z,86.64
2022-08-21T06:03:31.297Z,86.78
2022-08-21T06:05:58.127Z,86.43
2022-08-21T06:08:25.708Z,85.95
2022-08-21T06:10:54.220Z,83.06
2022-08-21T06:13:22.198Z,82.30
2022-08-21T06:15:49.444Z,81.15
2022-08-21T06:18:17.087Z,80.68
2022-08-21T06:20:44.080Z,82.52
2022-08-21T06:23:10.644Z,86.52
2022-08-21T06:25:37.785Z,88.05
2022-08-21T06:28:06.116Z,89.29
2022-08-21T06:30:33.449Z,89.12
2022-08-21T06:33:00.467Z,89.56
2022-08-21T06:35:27.414Z,88.36
2022-08-21T06:37:53.995Z,86.45
2022-08-21T06:40:20.768Z,84.68
2022-08-21T06:42:48.370Z,86.07
2022-08-21T06:45:18.147Z,83.78
2022-08-21T06:47:44.823Z,83.93
2022-08-21T06:50:11.980Z,82.46
2022-08-21T06:52:38.653Z,80.52
2022-08-21T06:55:07.409Z,79.58
2022-08-21T06:57:35.723Z,79.09
2022-08-21T07:00:05.533Z,79.14
2022-08-21T07:02:32.878Z,80.73
2022-08-21T07:04:59.438Z,77.18
2022-08-21T07:07:26.116Z,75.36
2022-08-21T07:09:52.807Z,76.37
2022-08-21T07:12:20.574Z,76.74
2022-08-21T07:14:47.155Z,76.97
2022-08-21T07:17:16.957Z,74.99
2022-08-21T07:19:43.514Z,73.41
2022-08-21T07:22:10.415Z,72.42
2022-08-21T07:24:37.086Z,72.03
2022-08-21T07:27:08.189Z,70.84
2022-08-21T07:29:36.509Z,70.93
2022-08-21T07:32:03.621Z,72.62
2022-08-21T07:34:30.436Z,71.74
2022-08-21T07:36:58.219Z,69.66
2022-08-21T07:39:25.426Z,70.13
2022-08-21T07:41:52.015Z,72.77
2022-08-21T07:44:18.687Z,74.57
2022-08-21T07:46:45.286Z,74.37
2022-08-21T07:49:11.909Z,72.71
2022-08-21T07:51:38.503Z,73.89
2022-08-21T07:54:05.307Z,73.20
2022-08-21T07:56:32.373Z,72.40
2022-08-21T07:58:59.800Z,72.07
2022-08-21T08:01:26.698Z,73.10
2022-08-21T08:03:53.526Z,72.31
2022-08-21T08:06:20.131Z,70.90
2022-08-21T08:08:47.505Z,70.29
2022-08-21T08:11:14.614Z,68.55
2022-08-21T08:13:48.380Z,68.92
2022-08-21T08:16:15.689Z,66.60
2022-08-21T08:18:42.738Z,66.31
2022-08-21T08:21:11.030Z,68.35
2022-08-21T08:23:37.804Z,67.04
2022-08-21T08:26:04.588Z,66.12
2022-08-21T08:28:32.190Z,67.59
2022-08-21T08:30:59.886Z,67.87
2022-08-21T08:33:26.551Z,65.30
2022-08-21T08:35:53.271Z,67.04
2022-08-21T08:38:24.484Z,62.93
2022-08-21T08:41:01.080Z,63.23
2022-08-21T08:43:33.730Z,60.65
2022-08-21T08:46:07.112Z,58.32
2022-08-21T08:48:52.818Z,59.76
2022-08-21T08:51:27.844Z,60.16
2022-08-21T08:54:08.958Z,59.10
2022-08-21T08:56:36.521Z,59.29
2022-08-21T08:59:19.753Z,59.55
2022-08-21T09:01:46.783Z,57.11
2022-08-21T09:04:14.243Z,57.82
2022-08-21T09:07:08.434Z,53.17
2022-08-21T09:10:00.837Z,51.77
2022-08-21T09:12:33.841Z,52.77
2022-08-21T09:15:22.232Z,51.15
2022-08-21T09:18:10.905Z,51.06
2022-08-21T09:21:07.907Z,48.73
2022-08-21T09:23:35.033Z,50.66
2022-08-21T09:26:07.637Z,50.43
2022-08-21T09:28:36.887Z,48.21
2022-08-21T09:31:22.927Z,48.88
2022-08-21T09:33:49.703Z,48.78
2022-08-21T09:36:51.887Z,48.37
2022-08-21T09:39:29.129Z,46.85
2022-08-21T09:42:01.865Z,46.47
2022-08-21T09:44:35.381Z,46.49
2022-08-21T09:47:02.091Z,49.34
2022-08-21T09:49:38.016Z,47.14
2022-08-21T09:52:16.525Z,44.73
2022-08-21T09:54:46.777Z,48.43
2022-08-21T09:57:23.536Z,47.02
2022-08-21T09:59:50.198Z,47.09
2022-08-21T10:02:30.902Z,47.93
2022-08-21T10:05:24.464Z,48.13
2022-08-21T10:07:51.679Z,46.52
2022-08-21T10:10:29.832Z,44.91
2022-08-21T10:13:29.429Z,44.43
2022-08-21T10:16:15.044Z,45.87
2022-08-21T10:19:10.096Z,42.69
2022-08-21T10:22:13.843Z,43.52
2022-08-21T10:24:52.528Z,42.25
2022-08-21T10:27:28.663Z,43.17
2022-08-21T10:30:04.546Z,45.27
2022-08-21T10:32:46.620Z,45.54
2022-08-21T10:35:28.011Z,46.21
2022-08-21T10:39:07.123Z,45.57
2022-08-21T10:41:41.838Z,44.97
2022-08-21T10:44:30.879Z,46.60
2022-08-21T10:47:19.531Z,43.67
2022-08-21T10:49:58.118Z,43.57
2022-08-21T10:52:44.212Z,42.29
2022-08-21T10:55:17.481Z,42.83
2022-08-21T10:57:50.313Z,40.01
2022-08-21T11:00:23.629Z,40.90
2022-08-21T11:03:05.195Z,42.48
2022-08-21T11:05:41.669Z,41.04
2022-08-21T11:08:38.535Z,40.01
2022-08-21T11:11:15.715Z,37.67
2022-08-21T11:13:50.837Z,39.63
2022-08-21T11:16:17.721Z,40.25
2022-08-21T11:18:51.241Z,39.12
2022-08-21T11:21:30.769Z,41.11
2022-08-21T11:24:19.179Z,38.73
2022-08-21T11:26:52.175Z,37.79
2022-08-21T11:29:27.761Z,36.80
2022-08-21T11:32:21.744Z,38.92
2022-08-21T11:35:01.751Z,37.53
2022-08-21T11:37:41.954Z,37.81
2022-08-21T11:40:23.943Z,36.49
2022-08-21T11:43:04.147Z,37.59
2022-08-21T11:45:49.686Z,38.44
2022-08-21T11:48:45.775Z,36.68
2022-08-21T11:51:16.664Z,36.34
2022-08-21T11:53:54.208Z,34.75
2022-08-21T11:56:31.724Z,34.31
2022-08-21T11:59:05.788Z,36.83
2022-08-21T12:01:37.987Z,35.41
2022-08-21T12:04:18.066Z,34.51
2022-08-21T12:06:45.928Z,34.04
2022-08-21T12:09:35.168Z,33.95
2022-08-21T12:12:28.069Z,33.82
2022-08-21T12:15:13.634Z,31.99
2022-08-21T12:17:51.351Z,31.63
2022-08-21T12:20:26.447Z,32.85
2022-08-21T12:23:02.686Z,35.17
2022-08-21T12:25:44.182Z,33.10
2022-08-21T12:28:13.690Z,34.59
2022-08-21T12:30:44.064Z,35.12
2022-08-21T12:33:40.155Z,34.52
2022-08-21T12:36:18.130Z,35.26
2022-08-21T12:39:05.675Z,34.52
2022-08-21T12:41:44.934Z,34.47
2022-08-21T12:44:17.340Z,34.58
2022-08-21T12:46:52.211Z,35.19
2022-08-21T12:49:27.968Z,35.27
2022-08-21T12:52:03.596Z,34.88
2022-08-21T12:54:39.660Z,34.44
2022-08-21T12:57:08.545Z,34.57
2022-08-21T12:59:40.710Z,35.36
2022-08-21T13:02:34.940Z,34.49
2022-08-21T13:05:06.353Z,34.30
2022-08-21T13:07:35.819Z,35.56
2022-08-21T13:10:20.224Z,34.90
2022-08-21T13:12:47.377Z,34.44
2022-08-21T13:15:15.076Z,33.60
2022-08-21T13:17:48.837Z,35.33
2022-08-21T13:20:28.964Z,35.01
2022-08-21T13:22:56.204Z,33.38
2022-08-21T13:25:29.881Z,32.74
2022-08-21T13:28:08.531Z,33.35
2022-08-21T13:30:42.478Z,33.57
2022-08-21T13:33:13.061Z,34.41
2022-08-21T13:35:49.239Z,35.09
2022-08-21T13:38:17.474Z,35.06
2022-08-21T13:40:55.171Z,34.20
2022-08-21T13:43:28.201Z,33.78
2022-08-21T13:45:56.445Z,32.68
2022-08-21T13:48:26.597Z,33.24
2022-08-21T13:50:54.894Z,33.76
2022-08-21T13:53:24.405Z,33.38
2022-08-21T13:55:51.239Z,32.68
2022-08-21T13:58:27.002Z,33.25
2022-08-21T14:00:54.939Z,34.81
2022-08-21T14:03:58.381Z,33.81
2022-08-21T14:06:28.015Z,33.77
2022-08-21T14:09:02.494Z,32.16
2022-08-21T14:11:35.000Z,34.47
2022-08-21T14:14:04.879Z,31.96
2022-08-21T14:16:55.309Z,31.23
2022-08-21T14:19:25.113Z,32.13
2022-08-21T14:21:52.255Z,30.91
2022-08-21T14:24:25.024Z,30.99
2022-08-21T14:27:08.613Z,32.55
2022-08-21T14:29:38.540Z,31.28
2022-08-21T14:32:25.138Z,27.63
2022-08-21T14:34:54.930Z,28.66
2022-08-21T14:37:23.238Z,30.84
2022-08-21T14:39:50.373Z,29.12
2022-08-21T14:42:16.954Z,29.11
2022-08-21T14:44:43.956Z,30.50
2022-08-21T14:47:11.017Z,29.44
2022-08-21T14:49:37.632Z,30.44
2022-08-21T14:52:04.773Z,28.67
2022-08-21T14:54:33.164Z,30.12
2022-08-21T14:57:03.271Z,30.91
2022-08-21T14:59:31.102Z,29.23
2022-08-21T15:01:57.693Z,28.95
2022-08-21T15:04:24.849Z,28.34
2022-08-21T15:06:51.648Z,28.68
2022-08-21T15:09:18.311Z,30.96
2022-08-21T15:11:44.900Z,28.48
2022-08-21T15:14:26.039Z,29.27
2022-08-21T15:16:53.492Z,30.19
2022-08-21T15:19:20.548Z,31.26
2022-08-21T15:21:47.509Z,28.98
2022-08-21T15:24:14.083Z,30.50
2022-08-21T15:26:40.732Z,28.35
2022-08-21T15:29:09.247Z,28.30
2022-08-21T15:31:37.254Z,28.06
2022-08-21T15:34:03.962Z,28.70
2022-08-21T15:36:30.711Z,28.28
2022-08-21T15:38:57.294Z,29.12
2022-08-21T15:41:24.008Z,28.08
2022-08-21T15:43:53.684Z,29.29
2022-08-21T15:46:21.649Z,30.44
2022-08-21T15:48:48.383Z,30.24
2022-08-21T15:51:17.102Z,28.50
2022-08-21T15:53:44.185Z,29.76
2022-08-21T15:56:35.472Z,29.67
2022-08-21T15:59:07.365Z,29.31
2022-08-21T16:01:36.158Z,29.53
2022-08-21T16:04:16.316Z,28.34
2022-08-21T16:06:53.223Z,28.47
2022-08-21T16:09:23.129Z,28.49
2022-08-21T16:11:50.089Z,29.22
2022-08-21T16:14:18.892Z,29.03
2022-08-21T16:16:46.293Z,29.17
2022-08-21T16:19:14.460Z,30.53
2022-08-21T16:21:41.386Z,30.95
2022-08-21T16:24:08.195Z,31.37
2022-08-21T16:26:34.908Z,30.42
2022-08-21T16:29:02.261Z,30.09
2022-08-21T16:31:30.772Z,31.03
2022-08-21T16:33:58.103Z,30.60
2022-08-21T16:36:25.744Z,30.72
2022-08-21T16:38:56.974Z,30.55
2022-08-21T16:41:33.261Z,31.46
2022-08-21T16:44:00.095Z,29.41
2022-08-21T16:46:27.713Z,29.59
2022-08-21T16:48:54.348Z,29.23
2022-08-21T16:51:20.989Z,29.55
2022-08-21T16:53:47.666Z,30.21
2022-08-21T16:56:16.767Z,29.89
2022-08-21T16:58:46.814Z,29.97
2022-08-21T17:01:16.209Z,31.19
2022-08-21T17:03:46.389Z,31.07
2022-08-21T17:06:14.656Z,30.63
2022-08-21T17:08:41.657Z,30.68
2022-08-21T17:11:37.379Z,31.20
2022-08-21T17:14:18.350Z,32.17
2022-08-21T17:16:47.933Z,33.20
2022-08-21T17:19:15.524Z,33.03
2022-08-21T17:21:42.281Z,33.23
2022-08-21T17:24:08.913Z,32.71
2022-08-21T17:26:36.329Z,32.05
2022-08-21T17:29:04.406Z,32.77
2022-08-21T17:31:31.463Z,31.75
2022-08-21T17:33:58.679Z,31.95
2022-08-21T17:36:28.688Z,32.41
2022-08-21T17:38:57.118Z,32.31
2022-08-21T17:41:25.183Z,32.60
2022-08-21T17:43:53.347Z,32.32
2022-08-21T17:46:23.752Z,32.54
2022-08-21T17:48:50.567Z,33.00
2022-08-21T17:51:18.482Z,33.18
2022-08-21T17:53:45.567Z,34.36
2022-08-21T17:56:17.379Z,34.12
2022-08-21T17:58:48.450Z,33.65
2022-08-21T18:01:16.049Z,34.87
2022-08-21T18:03:42.945Z,35.36
2022-08-21T18:06:12.272Z,35.44
2022-08-21T18:08:41.038Z,35.15
2022-08-21T18:11:10.510Z,35.64
2022-08-21T18:13:50.004Z,35.36
2022-08-21T18:16:16.597Z,36.37
2022-08-21T18:18:43.503Z,35.73
2022-08-21T18:21:10.260Z,35.41
2022-08-21T18:23:44.178Z,34.86
2022-08-21T18:26:14.722Z,35.52
2022-08-21T18:28:41.843Z,35.10
2022-08-21T18:31:11.102Z,37.17
2022-08-21T18:33:39.649Z,36.56
2022-08-21T18:36:10.421Z,37.92
2022-08-21T18:38:37.865Z,37.71
2022-08-21T18:41:10.154Z,37.28
2022-08-21T18:43:38.206Z,37.97
2022-08-21T18:46:05.270Z,38.76
2022-08-21T18:48:32.339Z,38.34
2022-08-21T18:51:00.977Z,38.36
2022-08-21T18:53:29.150Z,39.07
2022-08-21T18:55:57.113Z,38.76
2022-08-21T18:58:31.900Z,39.27
2022-08-21T19:00:58.525Z,39.28
2022-08-21T19:03:25.268Z,39.24
2022-08-21T19:05:53.230Z,39.61
2022-08-21T19:08:23.241Z,40.17
2022-08-21T19:10:53.199Z,40.49
2022-08-21T19:13:21.561Z,40.59
2022-08-21T19:15:49.735Z,40.79
2022-08-21T19:18:19.400Z,41.67
2022-08-21T19:20:48.006Z,42.11
2022-08-21T19:23:16.783Z,42.56
2022-08-21T19:28:41.732Z,43.15
2022-08-21T19:31:16.577Z,43.33
2022-08-21T19:33:57.234Z,43.36
2022-08-21T19:36:26.599Z,43.12
2022-08-21T19:38:53.347Z,43.45
2022-08-21T19:41:22.732Z,43.23
2022-08-21T19:43:55.159Z,43.39
2022-08-21T19:46:35.055Z,43.73
2022-08-21T19:49:04.671Z,43.06
2022-08-21T19:51:34.488Z,42.87
2022-08-21T19:54:02.308Z,41.66
2022-08-21T19:56:32.366Z,43.42
2022-08-21T19:59:03.040Z,42.32
2022-08-21T20:01:32.750Z,42.41
2022-08-21T20:03:59.692Z,42.29
2022-08-21T20:06:27.058Z,43.33
2022-08-21T20:08:54.806Z,43.49
2022-08-21T20:11:30.177Z,43.43
2022-08-21T20:16:47.578Z,45.30
2022-08-21T20:19:14.621Z,44.71
2022-08-21T20:21:44.004Z,44.94
2022-08-21T20:24:28.366Z,45.26
2022-08-21T20:26:56.139Z,45.66
2022-08-21T20:29:34.946Z,45.80
2022-08-21T20:32:05.743Z,46.32
2022-08-21T20:34:32.741Z,46.82
2022-08-21T20:37:00.999Z,46.69
2022-08-21T20:39:28.361Z,46.21
2022-08-21T20:41:55.571Z,46.76
2022-08-21T20:44:22.348Z,47.04
2022-08-21T20:46:54.142Z,47.49
2022-08-21T20:49:28.008Z,47.35
2022-08-21T20:51:58.349Z,47.24
2022-08-21T20:54:41.375Z,47.71
2022-08-21T20:57:44.276Z,47.62
2022-08-21T21:00:25.207Z,47.54
2022-08-21T21:03:04.318Z,47.85
2022-08-21T21:05:50.059Z,47.27
2022-08-21T21:08:28.966Z,47.83
2022-08-21T21:11:07.450Z,47.75
2022-08-21T21:14:00.666Z,48.29
2022-08-21T21:16:41.906Z,48.55
2022-08-21T21:19:46.504Z,49.21
2022-08-21T21:22:25.286Z,49.28
2022-08-21T21:25:14.744Z,48.89
2022-08-21T21:27:49.189Z,49.37
2022-08-21T21:30:46.608Z,50.20
2022-08-21T21:33:17.557Z,50.90
2022-08-21T21:35:49.393Z,50.10
2022-08-21T21:38:52.010Z,50.81
2022-08-21T21:41:34.130Z,50.95
2022-08-21T21:44:06.976Z,51.73
2022-08-21T21:46:33.509Z,52.33
2022-08-21T21:49:25.499Z,53.34
2022-08-21T21:52:24.683Z,53.13
2022-08-21T21:55:07.433Z,52.86
2022-08-21T21:57:37.071Z,52.56
2022-08-21T22:00:19.588Z,52.77
2022-08-21T22:02:58.606Z,52.02
2022-08-21T22:05:30.070Z,52.83
2022-08-21T22:08:07.788Z,53.16
2022-08-21T22:10:43.235Z,53.85
2022-08-21T22:13:52.267Z,54.00
2022-08-21T22:16:19.730Z,54.00
2022-08-21T22:18:54.750Z,53.68
2022-08-21T22:21:32.993Z,54.08
2022-08-21T22:24:11.454Z,54.22
2022-08-21T22:26:44.276Z,54.32
2022-08-21T22:29:15.936Z,53.25
2022-08-21T22:31:43.500Z,52.56
2022-08-21T22:34:18.413Z,52.78
2022-08-21T22:39:45.305Z,54.55
2022-08-21T22:42:21.276Z,56.64
2022-08-21T22:44:55.510Z,55.38
2022-08-21T22:47:30.442Z,56.16
2022-08-21T22:50:03.866Z,56.09
2022-08-21T22:52:37.257Z,57.65
2022-08-21T22:55:24.825Z,57.18
2022-08-21T22:58:06.203Z,56.92
2022-08-21T23:01:02.138Z,56.48
2022-08-21T23:03:32.651Z,56.79
2022-08-21T23:06:13.025Z,57.74
2022-08-21T23:08:40.534Z,57.32
2022-08-21T23:11:20.898Z,57.37
2022-08-21T23:13:51.759Z,57.27
2022-08-21T23:16:36.622Z,57.42
2022-08-21T23:19:46.563Z,56.65
2022-08-21T23:22:33.208Z,56.86
2022-08-21T23:25:15.277Z,56.95
2022-08-21T23:28:07.008Z,57.72
2022-08-21T23:30:35.923Z,58.21
2022-08-21T23:33:11.356Z,58.56
2022-08-21T23:35:48.085Z,58.37
2022-08-21T23:38:39.249Z,57.96
2022-08-21T23:41:34.433Z,59.86
2022-08-21T23:44:21.184Z,58.81
2022-08-21T23:47:14.720Z,58.59
2022-08-21T23:50:04.870Z,58.80
2022-08-21T23:52:42.859Z,57.96
2022-08-21T23:55:15.565Z,58.40
2022-08-21T23:58:04.186Z,57.39
